Time;durP1;ratioP1;P1;durP2;ratioP2;P2;SDS_P1;SDS_P2;PMS_P1;PMS_P2;Temp;Humidity;BMP_temperature;BMP_pressure;BME280_temperature;BME280_humidity;BME280_pressure;Samples;Min_cycle;Max_cycle;Signal;HPM_P1;HPM_P2
2022/12/27 00:01:13;;;;;;;10.00;1.70;;;5.90;99.90;;;;;;5266550;28;20490;-49
2022/12/27 00:03:44;;;;;;;10.57;2.03;;;5.90;99.90;;;;;;5265686;28;20460;-47
2022/12/27 00:06:18;;;;;;;3.57;1.50;;;5.90;99.90;;;;;;5263532;28;20440;-48
2022/12/27 00:08:49;;;;;;;21.30;2.13;;;5.90;99.90;;;;;;5254607;28;20530;-48
2022/12/27 00:11:24;;;;;;;11.53;1.37;;;5.80;99.90;;;;;;5259604;28;20455;-48
2022/12/27 00:14:05;;;;;;;11.27;2.03;;;5.60;99.90;;;;;;5264960;28;20965;-50
2022/12/27 00:16:37;;;;;;;4.60;1.40;;;5.40;99.90;;;;;;5264175;28;20471;-48
2022/12/27 00:19:07;;;;;;;7.57;1.87;;;5.40;99.90;;;;;;5267834;28;20459;-47
2022/12/27 00:21:38;;;;;;;5.30;0.97;;;5.20;99.90;;;;;;5257443;28;21802;-49
2022/12/27 00:24:09;;;;;;;10.03;2.07;;;5.10;99.90;;;;;;5263290;28;20214;-49
2022/12/27 00:26:40;;;;;;;5.93;2.20;;;5.10;99.90;;;;;;5260058;28;20190;-48
2022/12/27 00:29:11;;;;;;;2.50;1.30;;;5.00;99.90;;;;;;5261602;28;20467;-48
2022/12/27 00:31:41;;;;;;;9.77;1.87;;;5.00;99.90;;;;;;5260190;28;20470;-51
2022/12/27 00:34:12;;;;;;;10.73;1.83;;;5.00;99.90;;;;;;5262190;28;20193;-52
2022/12/27 00:36:43;;;;;;;6.63;1.97;;;5.00;99.90;;;;;;5261931;28;20196;-50
2022/12/27 00:39:13;;;;;;;9.73;1.40;;;4.90;99.90;;;;;;5260428;28;20202;-50
2022/12/27 00:41:44;;;;;;;7.17;1.80;;;4.90;99.90;;;;;;5254512;28;20194;-50
2022/12/27 00:44:15;;;;;;;7.33;1.50;;;5.00;99.90;;;;;;5263722;28;20193;-51
2022/12/27 00:46:45;;;;;;;14.33;2.10;;;4.90;99.90;;;;;;5259255;28;20186;-50
2022/12/27 00:49:16;;;;;;;9.17;1.73;;;4.90;99.90;;;;;;5261908;28;20704;-51
2022/12/27 00:51:47;;;;;;;5.53;2.00;;;4.80;99.90;;;;;;5264137;28;20208;-51
2022/12/27 00:54:17;;;;;;;5.93;1.70;;;4.70;99.90;;;;;;5267685;28;20209;-50
2022/12/27 00:56:48;;;;;;;4.53;1.60;;;4.70;99.90;;;;;;5260143;28;20181;-51
2022/12/27 00:59:18;;;;;;;7.10;1.90;;;4.60;99.90;;;;;;5263048;28;20214;-50
2022/12/27 01:01:49;;;;;;;6.07;2.03;;;4.60;99.90;;;;;;5262044;28;20594;-50
2022/12/27 01:04:20;;;;;;;5.07;1.90;;;4.50;99.90;;;;;;5255946;28;20193;-49
2022/12/27 01:06:50;;;;;;;3.40;1.50;;;4.40;99.90;;;;;;5262232;28;20257;-50
2022/12/27 01:09:21;;;;;;;10.17;1.70;;;4.40;99.90;;;;;;5265432;28;20219;-50
2022/12/27 01:11:51;;;;;;;3.83;1.50;;;4.40;99.90;;;;;;5259251;28;20664;-50
2022/12/27 01:14:22;;;;;;;17.03;2.53;;;4.30;99.90;;;;;;5249108;28;20184;-48
2022/12/27 01:16:53;;;;;;;15.60;2.40;;;4.20;99.90;;;;;;5258557;28;20181;-50
2022/12/27 01:19:23;;;;;;;4.17;1.50;;;4.20;99.90;;;;;;5260099;28;20185;-50
2022/12/27 01:21:54;;;;;;;9.27;2.30;;;4.20;99.90;;;;;;5255469;28;20192;-49
2022/12/27 01:24:25;;;;;;;5.90;1.20;;;4.10;99.90;;;;;;5265280;28;20184;-50
2022/12/27 01:26:55;;;;;;;20.00;2.30;;;4.00;99.90;;;;;;5265176;28;20197;-51
2022/12/27 01:29:26;;;;;;;10.63;1.67;;;4.10;99.90;;;;;;5260522;28;20199;-51
2022/12/27 01:31:56;;;;;;;4.77;1.90;;;4.10;99.90;;;;;;5252740;28;20216;-51
2022/12/27 01:34:27;;;;;;;7.40;1.53;;;4.00;99.90;;;;;;5259893;28;20198;-50
2022/12/27 01:36:58;;;;;;;13.10;2.10;;;4.00;99.90;;;;;;5253689;28;20687;-49
2022/12/27 01:39:28;;;;;;;7.33;1.40;;;4.00;99.90;;;;;;5259350;28;20184;-49
2022/12/27 01:44:54;;;;;;;7.07;2.10;;;3.90;99.90;;;;;;5262034;28;20713;-50
2022/12/27 01:47:47;;;;;;;10.13;2.13;;;4.00;99.90;;;;;;5262932;28;20550;-50
2022/12/27 01:50:24;;;;;;;7.90;2.00;;;3.90;99.90;;;;;;5261344;28;20441;-50
2022/12/27 01:53:09;;;;;;;5.90;1.50;;;3.80;99.90;;;;;;5254222;28;20469;-49
2022/12/27 01:56:00;;;;;;;4.83;1.80;;;3.80;99.90;;;;;;5243653;28;20581;-50
2022/12/27 01:58:41;;;;;;;16.80;2.07;;;3.80;99.90;;;;;;5260506;28;20522;-51
2022/12/27 02:01:19;;;;;;;13.43;2.07;;;3.70;99.90;;;;;;5262386;28;20525;-51
2022/12/27 02:03:58;;;;;;;10.30;1.80;;;3.70;99.90;;;;;;5263922;28;20438;-51
2022/12/27 02:06:30;;;;;;;14.43;2.17;;;3.80;99.90;;;;;;5258157;28;21031;-50
2022/12/27 02:09:32;;;;;;;5.60;1.23;;;3.70;99.90;;;;;;5250476;28;20477;-51
2022/12/27 02:12:06;;;;;;;4.53;1.60;;;3.70;99.90;;;;;;5263458;28;20503;-51
2022/12/27 02:14:45;;;;;;;6.57;2.10;;;3.60;99.90;;;;;;5261326;28;20441;-50
2022/12/27 02:17:25;;;;;;;4.77;1.90;;;3.60;99.90;;;;;;5266451;28;20457;-52
2022/12/27 02:20:02;;;;;;;11.20;1.83;;;3.60;99.90;;;;;;5264508;28;20844;-52
2022/12/27 02:25:49;;;;;;;19.60;2.00;;;3.50;99.90;;;;;;5253792;28;20428;-51
2022/12/27 02:28:32;;;;;;;8.50;2.10;;;3.60;99.90;;;;;;5264002;28;20607;-50
2022/12/27 02:31:07;;;;;;;5.23;1.90;;;3.60;99.90;;;;;;5261503;28;20872;-51
2022/12/27 02:33:45;;;;;;;16.20;1.70;;;3.70;99.90;;;;;;5255618;28;20797;-50
2022/12/27 02:36:28;;;;;;;11.53;2.23;;;3.70;99.90;;;;;;5257910;28;20439;-48
2022/12/27 02:39:01;;;;;;;12.20;1.83;;;3.60;99.90;;;;;;5260958;28;20460;-51
2022/12/27 02:53:21;;;;;;;3.50;2.07;;;3.40;99.90;;;;;;5265966;28;20558;-52
2022/12/27 02:58:56;;;;;;;6.03;1.07;;;3.30;99.90;;;;;;5264316;28;20554;-51
2022/12/27 03:04:43;;;;;;;8.77;2.37;;;3.20;99.90;;;;;;5260691;28;20805;-51
2022/12/27 03:07:42;;;;;;;5.80;1.50;;;3.10;99.90;;;;;;5263943;28;20516;-52
2022/12/27 03:15:58;;;;;;;11.17;1.77;;;3.00;99.90;;;;;;5259172;28;20431;-49
2022/12/27 03:18:48;;;;;;;8.47;2.03;;;3.00;99.90;;;;;;5260228;28;20889;-52
2022/12/27 03:27:30;;;;;;;9.10;1.80;;;3.10;99.90;;;;;;5259672;28;20446;-50
2022/12/27 03:33:13;;;;;;;7.07;2.17;;;3.10;99.90;;;;;;5256597;28;20471;-51
2022/12/27 03:39:14;;;;;;;13.90;2.80;;;3.00;99.90;;;;;;5261690;28;20456;-49
2022/12/27 03:44:40;;;;;;;17.80;1.70;;;3.00;99.90;;;;;;5261000;28;20451;-51
2022/12/27 03:47:36;;;;;;;9.33;1.70;;;2.90;99.90;;;;;;5264908;28;20834;-50
2022/12/27 03:50:14;;;;;;;5.20;1.57;;;3.00;99.90;;;;;;5260751;28;20193;-50
2022/12/27 03:53:11;;;;;;;9.17;1.80;;;3.00;99.90;;;;;;5255198;28;20452;-50
2022/12/27 03:55:42;;;;;;;7.60;1.77;;;3.00;99.90;;;;;;5251407;28;20948;-51
2022/12/27 03:58:13;;;;;;;7.17;1.80;;;3.00;99.90;;;;;;5258081;28;20487;-50
2022/12/27 04:00:43;;;;;;;7.37;2.67;;;3.00;99.90;;;;;;5260107;28;20462;-49
2022/12/27 04:03:14;;;;;;;10.33;2.10;;;3.10;99.90;;;;;;5249621;28;20187;-50
2022/12/27 04:05:45;;;;;;;10.63;2.37;;;3.00;99.90;;;;;;5259182;28;20272;-50
2022/12/27 04:36:26;;;;;;;4.63;1.33;;;2.90;99.90;;;;;;5256011;28;20424;-49
2022/12/27 04:38:57;;;;;;;5.60;1.50;;;2.90;99.90;;;;;;5264967;28;20491;-51
2022/12/27 04:55:47;;;;;;;3.40;1.87;;;3.00;99.90;;;;;;5266205;28;20447;-51
2022/12/27 04:58:17;;;;;;;7.43;2.03;;;2.90;99.90;;;;;;5277541;28;20467;-51
2022/12/27 05:03:38;;;;;;;3.70;1.70;;;2.90;99.90;;;;;;5265989;28;20182;-51
2022/12/27 05:06:09;;;;;;;2.67;1.40;;;2.90;99.90;;;;;;5262520;28;20499;-51
2022/12/27 05:14:18;;;;;;;4.73;2.50;;;3.10;99.90;;;;;;5256216;28;20496;-56
2022/12/27 05:16:49;;;;;;;6.73;2.43;;;3.10;99.90;;;;;;5261921;28;20514;-51
2022/12/27 05:19:19;;;;;;;7.93;2.10;;;3.20;99.90;;;;;;5264219;28;20236;-50
2022/12/27 05:27:28;;;;;;;3.20;1.70;;;3.10;99.90;;;;;;5261457;28;21386;-51
2022/12/27 05:29:59;;;;;;;4.83;1.77;;;3.10;99.90;;;;;;5262918;28;20444;-52
2022/12/27 05:32:30;;;;;;;4.50;2.17;;;3.10;99.90;;;;;;5244674;28;20202;-51
2022/12/27 05:35:00;;;;;;;6.20;2.23;;;3.40;99.90;;;;;;5263957;28;20557;-52
2022/12/27 05:37:31;;;;;;;3.03;1.87;;;3.50;99.90;;;;;;5263273;28;20203;-51
2022/12/27 05:40:02;;;;;;;3.63;2.00;;;3.50;99.90;;;;;;5261970;28;20182;-48
2022/12/27 05:42:32;;;;;;;5.03;2.20;;;3.50;99.90;;;;;;5268252;28;20186;-51
2022/12/27 05:45:03;;;;;;;3.93;1.20;;;3.40;99.90;;;;;;5258384;28;20511;-50
2022/12/27 05:47:34;;;;;;;2.50;1.30;;;3.40;99.90;;;;;;5249122;28;20215;-51
2022/12/27 05:50:05;;;;;;;2.63;1.80;;;3.50;99.90;;;;;;5263483;28;20476;-51
2022/12/27 05:52:36;;;;;;;4.90;1.83;;;3.70;99.90;;;;;;5257446;28;20211;-51
2022/12/27 05:55:08;;;;;;;2.03;1.43;;;3.80;99.90;;;;;;5256614;28;20430;-52
2022/12/27 05:57:38;;;;;;;11.00;1.90;;;3.80;99.90;;;;;;5258985;28;20207;-51
2022/12/27 06:00:10;;;;;;;3.80;1.50;;;3.90;99.90;;;;;;5258446;28;20450;-51
2022/12/27 06:02:41;;;;;;;4.40;1.90;;;3.90;99.90;;;;;;5247365;28;20244;-51
2022/12/27 06:05:11;;;;;;;7.83;2.20;;;3.80;99.90;;;;;;5261710;28;20937;-51
2022/12/27 06:07:42;;;;;;;5.23;2.40;;;3.70;99.90;;;;;;5258530;28;20213;-51
2022/12/27 06:10:14;;;;;;;9.60;1.80;;;3.60;99.90;;;;;;5262784;28;20661;-50
2022/12/27 06:12:44;;;;;;;12.67;1.97;;;3.60;99.90;;;;;;5267626;28;20215;-52
2022/12/27 06:15:15;;;;;;;10.33;1.93;;;3.50;99.90;;;;;;5265103;28;20433;-51
2022/12/27 06:17:46;;;;;;;5.33;1.50;;;3.50;99.90;;;;;;5258141;28;20218;-51
2022/12/27 06:20:17;;;;;;;11.80;1.63;;;3.30;99.90;;;;;;5255952;28;20285;-51
2022/12/27 06:22:48;;;;;;;3.87;1.63;;;3.30;99.90;;;;;;5263541;28;20199;-51
2022/12/27 06:25:18;;;;;;;7.20;1.80;;;3.30;99.90;;;;;;5264002;28;20439;-50
2022/12/27 06:27:49;;;;;;;4.33;1.10;;;3.10;99.90;;;;;;5263489;28;20667;-51
2022/12/27 06:30:20;;;;;;;1.90;1.13;;;3.20;99.90;;;;;;5265425;28;20194;-52
2022/12/27 06:32:50;;;;;;;4.57;1.60;;;3.10;99.90;;;;;;5265344;28;20209;-51
2022/12/27 06:35:21;;;;;;;3.70;1.20;;;3.10;99.90;;;;;;5263168;28;20255;-51
2022/12/27 06:37:51;;;;;;;2.10;1.10;;;3.20;99.90;;;;;;5256419;28;20212;-52
2022/12/27 06:40:22;;;;;;;3.77;1.83;;;3.20;99.90;;;;;;5265333;28;20520;-52
2022/12/27 06:42:53;;;;;;;5.40;1.23;;;3.20;99.90;;;;;;5263343;28;20184;-47
2022/12/27 06:45:23;;;;;;;5.10;1.67;;;3.20;99.90;;;;;;5264808;28;20695;-48
2022/12/27 06:47:54;;;;;;;4.23;1.43;;;3.20;99.90;;;;;;5266122;28;20242;-48
2022/12/27 06:50:24;;;;;;;10.43;1.60;;;3.20;99.90;;;;;;5261074;28;20276;-48
2022/12/27 06:52:55;;;;;;;6.27;1.37;;;3.30;99.90;;;;;;5260138;28;20218;-50
2022/12/27 06:55:26;;;;;;;3.73;1.83;;;3.50;99.90;;;;;;5266190;28;20182;-50
2022/12/27 06:57:57;;;;;;;2.70;1.43;;;3.60;99.90;;;;;;5270950;28;20244;-49
2022/12/27 07:00:27;;;;;;;4.37;1.60;;;3.60;99.90;;;;;;5267740;28;20220;-51
2022/12/27 07:02:58;;;;;;;6.43;1.90;;;3.70;99.90;;;;;;5269482;28;20207;-51
2022/12/27 07:05:29;;;;;;;4.30;1.10;;;3.70;99.90;;;;;;5266997;28;20267;-49
2022/12/27 07:07:59;;;;;;;3.47;1.10;;;3.60;99.90;;;;;;5263972;28;20573;-56
2022/12/27 07:10:30;;;;;;;1.87;1.43;;;3.60;99.90;;;;;;5264148;28;20848;-50
2022/12/27 07:13:01;;;;;;;2.50;1.07;;;3.50;99.90;;;;;;5264281;28;20572;-51
2022/12/27 07:15:31;;;;;;;2.73;1.50;;;3.50;99.90;;;;;;5268995;28;20292;-48
2022/12/27 07:18:02;;;;;;;6.77;1.20;;;3.40;99.90;;;;;;5265431;28;20201;-50
2022/12/27 07:20:33;;;;;;;3.03;1.50;;;3.60;99.90;;;;;;5264010;28;20195;-47
2022/12/27 07:23:03;;;;;;;6.93;1.83;;;3.70;99.90;;;;;;5267877;28;20173;-49
2022/12/27 07:25:34;;;;;;;7.73;1.60;;;3.80;99.90;;;;;;5272559;28;20591;-49
2022/12/27 07:28:04;;;;;;;5.30;1.43;;;3.70;99.90;;;;;;5266577;28;20260;-49
2022/12/27 07:30:38;;;;;;;3.00;1.47;;;3.80;99.90;;;;;;5265164;28;20650;-48
2022/12/27 07:33:09;;;;;;;11.73;2.87;;;3.80;99.90;;;;;;5271407;28;20214;-53
2022/12/27 07:35:40;;;;;;;11.00;2.00;;;3.90;99.90;;;;;;5273237;28;20533;-50
2022/12/27 07:38:10;;;;;;;4.37;1.43;;;4.10;99.90;;;;;;5269177;28;20200;-49
2022/12/27 07:40:41;;;;;;;4.20;1.30;;;4.00;99.90;;;;;;5269928;28;20175;-50
2022/12/27 07:43:12;;;;;;;3.17;1.57;;;4.00;99.90;;;;;;5265652;28;20607;-49
2022/12/27 07:45:42;;;;;;;12.20;1.73;;;4.10;99.90;;;;;;5266831;28;20285;-49
2022/12/27 07:48:13;;;;;;;7.90;1.60;;;4.10;99.90;;;;;;5260035;28;20230;-51
2022/12/27 07:50:53;;;;;;;6.73;1.63;;;4.20;99.90;;;;;;5252102;28;20263;-48
2022/12/27 07:53:24;;;;;;;5.80;1.30;;;4.20;99.90;;;;;;5267671;28;20219;-48
2022/12/27 07:55:54;;;;;;;2.43;0.90;;;4.40;99.90;;;;;;5267681;28;20427;-49
2022/12/27 07:58:25;;;;;;;3.80;1.63;;;4.40;99.90;;;;;;5270219;28;20689;-50
2022/12/27 08:00:56;;;;;;;1.80;1.27;;;4.40;99.90;;;;;;5266160;28;20687;-51
2022/12/27 08:03:26;;;;;;;4.57;2.10;;;4.50;99.90;;;;;;5260634;28;20212;-50
2022/12/27 08:05:57;;;;;;;2.47;1.80;;;4.50;99.90;;;;;;5265461;28;20230;-51
2022/12/27 08:08:36;;;;;;;7.20;1.40;;;4.50;99.90;;;;;;5263582;28;20214;-50
2022/12/27 08:11:07;;;;;;;5.90;1.60;;;4.40;99.90;;;;;;5261392;28;20193;-50
2022/12/27 08:13:37;;;;;;;1.97;1.53;;;4.40;99.90;;;;;;5267734;28;21058;-50
2022/12/27 08:16:17;;;;;;;8.77;1.90;;;4.30;99.90;;;;;;5265661;28;20187;-52
2022/12/27 08:18:47;;;;;;;10.00;2.00;;;4.40;99.90;;;;;;5265150;28;20207;-51
2022/12/27 08:21:18;;;;;;;1.50;1.40;;;4.40;99.90;;;;;;5262611;28;20439;-51
2022/12/27 08:23:48;;;;;;;4.70;1.17;;;4.40;99.90;;;;;;5267412;28;20184;-51
2022/12/27 08:26:19;;;;;;;6.63;1.60;;;4.50;99.90;;;;;;5266474;28;20177;-51
2022/12/27 08:28:51;;;;;;;3.17;1.83;;;4.50;99.90;;;;;;5262968;28;20200;-51
2022/12/27 08:31:21;;;;;;;2.30;1.70;;;4.40;99.90;;;;;;5265413;28;20292;-51
2022/12/27 08:33:52;;;;;;;5.17;1.90;;;4.50;99.90;;;;;;5263304;28;20435;-52
2022/12/27 08:36:23;;;;;;;13.33;2.53;;;4.60;99.90;;;;;;5256019;28;20178;-51
2022/12/27 08:38:54;;;;;;;5.50;1.90;;;4.60;99.90;;;;;;5266588;28;20199;-51
2022/12/27 08:41:25;;;;;;;3.80;1.97;;;4.60;99.90;;;;;;5260212;28;20181;-51
2022/12/27 08:43:55;;;;;;;5.17;1.80;;;4.70;99.90;;;;;;5261954;28;20426;-51
2022/12/27 08:46:26;;;;;;;1.90;1.43;;;4.80;99.90;;;;;;5262908;28;20183;-51
2022/12/27 08:48:56;;;;;;;5.97;1.70;;;4.80;99.90;;;;;;5260607;28;20204;-51
2022/12/27 08:51:27;;;;;;;10.23;2.13;;;4.80;99.90;;;;;;5264859;28;20266;-50
2022/12/27 08:53:58;;;;;;;4.00;2.10;;;4.90;99.90;;;;;;5244716;28;20175;-51
2022/12/27 08:56:29;;;;;;;2.63;1.87;;;4.90;99.90;;;;;;5261194;28;20431;-51
2022/12/27 08:59:00;;;;;;;5.93;1.77;;;4.90;99.90;;;;;;5246799;28;20262;-51
2022/12/27 09:01:31;;;;;;;1.87;1.60;;;4.90;99.90;;;;;;5262943;28;20212;-52
2022/12/27 09:04:02;;;;;;;1.70;1.37;;;4.90;99.90;;;;;;5262345;28;20174;-52
2022/12/27 09:06:32;;;;;;;4.97;2.30;;;5.00;99.90;;;;;;5265525;28;20536;-51
2022/12/27 09:09:03;;;;;;;8.90;2.17;;;5.00;99.90;;;;;;5260229;28;20234;-49
2022/12/27 09:11:34;;;;;;;3.97;2.10;;;4.90;99.90;;;;;;5265132;28;20331;-51
2022/12/27 09:14:05;;;;;;;2.50;1.33;;;4.90;99.90;;;;;;5260489;28;20182;-50
2022/12/27 09:16:36;;;;;;;6.30;1.90;;;5.00;99.90;;;;;;5260463;28;20178;-50
2022/12/27 09:19:06;;;;;;;6.83;1.40;;;5.10;99.90;;;;;;5258857;28;20986;-49
2022/12/27 09:21:39;;;;;;;8.30;1.50;;;5.10;99.90;;;;;;5264340;28;20185;-50
2022/12/27 09:24:11;;;;;;;6.93;2.07;;;5.10;99.90;;;;;;5254682;28;20807;-53
2022/12/27 09:26:42;;;;;;;4.53;1.40;;;5.10;99.90;;;;;;5260366;28;20547;-49
2022/12/27 09:29:13;;;;;;;8.83;1.57;;;5.10;99.90;;;;;;5263205;28;20577;-51
2022/12/27 09:31:43;;;;;;;5.93;1.90;;;5.10;99.90;;;;;;5271302;28;20255;-50
2022/12/27 09:34:14;;;;;;;6.20;1.90;;;5.10;99.90;;;;;;5273293;28;20173;-50
2022/12/27 09:36:45;;;;;;;1.63;1.07;;;5.20;99.90;;;;;;5264953;28;20172;-50
2022/12/27 09:39:16;;;;;;;4.83;2.03;;;5.30;99.90;;;;;;5267688;28;20572;-50
2022/12/27 09:41:58;;;;;;;6.63;1.73;;;5.20;99.90;;;;;;5267006;28;20302;-50
2022/12/27 09:44:37;;;;;;;7.20;2.30;;;5.20;99.90;;;;;;5267722;28;20793;-51
2022/12/27 09:47:26;;;;;;;3.90;1.60;;;5.40;99.90;;;;;;5255863;28;20454;-50
2022/12/27 09:50:14;;;;;;;4.73;2.13;;;5.60;99.90;;;;;;5269650;28;20772;-51
2022/12/27 09:53:06;;;;;;;3.80;1.80;;;6.00;99.90;;;;;;5265456;28;20530;-50
2022/12/27 09:55:42;;;;;;;13.40;3.00;;;6.10;99.90;;;;;;5266454;28;20886;-50
2022/12/27 09:58:17;;;;;;;5.00;2.33;;;6.40;99.90;;;;;;5269334;28;21041;-50
2022/12/27 10:00:52;;;;;;;5.50;2.57;;;6.30;99.90;;;;;;5257669;28;20485;-51
2022/12/27 10:03:28;;;;;;;10.90;1.87;;;6.30;99.90;;;;;;5270094;28;20441;-50
2022/12/27 10:06:23;;;;;;;3.03;1.63;;;6.40;99.90;;;;;;5269174;28;20438;-51
2022/12/27 10:09:06;;;;;;;6.47;1.80;;;6.40;99.90;;;;;;5266019;28;20512;-50
2022/12/27 10:12:25;;;;;;;2.83;1.70;;;6.30;99.90;;;;;;5266217;28;20531;-49
2022/12/27 10:15:14;;;;;;;7.73;2.30;;;6.20;99.90;;;;;;5260766;28;20435;-51
2022/12/27 10:17:59;;;;;;;6.83;1.90;;;6.40;99.90;;;;;;5264023;28;20984;-51
2022/12/27 10:20:48;;;;;;;7.10;1.90;;;6.30;99.90;;;;;;5266567;28;20518;-49
2022/12/27 10:23:26;;;;;;;8.70;1.97;;;6.30;99.90;;;;;;5260992;28;20439;-51
2022/12/27 10:26:04;;;;;;;4.00;1.43;;;6.30;99.90;;;;;;5267972;28;20840;-52
2022/12/27 10:28:39;;;;;;;2.10;1.83;;;6.40;99.90;;;;;;5264752;28;20453;-49
2022/12/27 10:31:17;;;;;;;2.00;1.90;;;6.60;99.90;;;;;;5266125;28;20443;-51
2022/12/27 10:33:49;;;;;;;6.73;2.60;;;6.70;99.90;;;;;;5266348;28;20435;-49
2022/12/27 10:36:26;;;;;;;9.60;2.07;;;6.70;99.90;;;;;;5267614;28;20451;-50
2022/12/27 10:38:57;;;;;;;3.03;1.87;;;6.70;99.90;;;;;;5267288;28;20538;-51
2022/12/27 10:41:49;;;;;;;3.43;1.93;;;6.70;99.90;;;;;;5269339;28;20564;-51
2022/12/27 10:44:22;;;;;;;4.17;2.03;;;6.80;99.90;;;;;;5268885;28;20185;-51
2022/12/27 10:46:54;;;;;;;15.20;6.87;;;6.80;99.90;;;;;;5265161;28;20506;-51
2022/12/27 10:49:26;;;;;;;15.93;3.17;;;6.70;99.90;;;;;;5237910;28;20548;-50
2022/12/27 10:52:06;;;;;;;5.63;2.70;;;6.70;99.90;;;;;;5252442;28;20535;-51
2022/12/27 10:54:51;;;;;;;4.37;2.20;;;6.70;99.90;;;;;;5261675;28;20431;-50
2022/12/27 10:57:32;;;;;;;5.90;2.50;;;6.60;99.90;;;;;;5251130;28;20527;-51
2022/12/27 11:00:16;;;;;;;8.90;2.70;;;6.40;99.90;;;;;;5257924;28;20435;-52
2022/12/27 11:02:53;;;;;;;3.33;1.57;;;6.40;99.90;;;;;;5263029;28;20438;-50
2022/12/27 11:05:30;;;;;;;4.43;1.90;;;6.60;99.90;;;;;;5264152;28;20435;-51
2022/12/27 11:08:19;;;;;;;13.50;2.37;;;6.60;99.90;;;;;;5266981;28;20454;-51
2022/12/27 11:11:10;;;;;;;12.13;3.20;;;6.60;99.90;;;;;;5266627;28;20435;-51
2022/12/27 11:13:42;;;;;;;6.00;2.30;;;6.60;99.90;;;;;;5265347;28;20471;-52
2022/12/27 11:16:31;;;;;;;3.90;2.57;;;6.50;99.90;;;;;;5264319;28;20425;-49
2022/12/27 11:19:02;;;;;;;6.17;2.57;;;6.50;99.90;;;;;;5267078;28;20447;-52
2022/12/27 11:21:39;;;;;;;2.30;1.70;;;6.50;99.90;;;;;;5266797;28;20438;-50
2022/12/27 11:24:14;;;;;;;2.77;2.00;;;6.50;99.90;;;;;;5261572;28;20450;-51
2022/12/27 11:27:00;;;;;;;4.57;2.90;;;6.50;99.90;;;;;;5263846;28;20447;-50
2022/12/27 11:29:32;;;;;;;5.20;2.10;;;6.60;99.90;;;;;;5267292;28;20491;-50
2022/12/27 11:32:06;;;;;;;10.00;2.77;;;6.60;99.90;;;;;;5261941;28;20551;-50
2022/12/27 11:34:38;;;;;;;5.90;2.20;;;6.50;99.90;;;;;;5258997;28;20806;-51
2022/12/27 11:37:16;;;;;;;7.37;2.30;;;6.30;99.90;;;;;;5270871;28;20840;-50
2022/12/27 11:40:09;;;;;;;2.60;2.20;;;6.40;99.90;;;;;;5263245;28;20451;-50
2022/12/27 11:42:44;;;;;;;5.43;2.20;;;6.40;99.90;;;;;;5266576;28;20451;-50
2022/12/27 11:45:22;;;;;;;7.63;3.40;;;6.50;99.90;;;;;;5273620;28;20438;-50
2022/12/27 11:48:13;;;;;;;12.13;2.60;;;6.50;99.90;;;;;;5260413;28;20455;-51
2022/12/27 11:50:55;;;;;;;7.50;2.70;;;6.40;99.90;;;;;;5266922;28;20525;-50
2022/12/27 11:53:56;;;;;;;15.83;2.90;;;6.40;99.90;;;;;;5273992;28;20827;-51
2022/12/27 11:56:35;;;;;;;3.97;2.50;;;6.30;99.90;;;;;;5262200;28;20470;-51
2022/12/27 11:59:44;;;;;;;6.20;2.43;;;6.40;99.90;;;;;;5250459;28;20843;-49
2022/12/27 12:02:39;;;;;;;7.50;2.97;;;6.40;99.90;;;;;;5251900;28;20438;-51
2022/12/27 12:05:38;;;;;;;6.93;2.70;;;6.40;99.90;;;;;;5253705;28;20527;-51
2022/12/27 12:08:28;;;;;;;4.03;1.93;;;6.50;99.90;;;;;;5251048;28;20949;-52
2022/12/27 12:11:14;;;;;;;6.10;2.63;;;6.50;99.90;;;;;;5268872;28;20523;-51
2022/12/27 12:13:55;;;;;;;5.30;2.93;;;6.50;99.90;;;;;;5253997;28;21576;-51
2022/12/27 12:17:03;;;;;;;8.70;3.27;;;6.50;99.90;;;;;;5253970;28;20431;-50
2022/12/27 12:19:58;;;;;;;14.87;8.37;;;6.50;99.90;;;;;;5251238;28;21722;-52
2022/12/27 12:22:43;;;;;;;8.20;5.60;;;6.50;99.90;;;;;;5256947;28;20450;-48
2022/12/27 12:25:48;;;;;;;10.37;3.30;;;6.60;99.90;;;;;;5256285;28;20451;-48
2022/12/27 12:28:57;;;;;;;15.67;8.17;;;6.60;99.90;;;;;;5258259;28;21010;-49
2022/12/27 12:31:50;;;;;;;7.63;3.50;;;6.50;99.90;;;;;;5189207;28;20442;-49
2022/12/27 12:34:37;;;;;;;33.63;15.47;;;6.60;99.90;;;;;;5253760;28;20433;-49
2022/12/27 12:37:26;;;;;;;17.53;4.90;;;6.50;99.90;;;;;;5258199;28;20423;-52
2022/12/27 12:40:25;;;;;;;9.97;4.53;;;6.60;99.90;;;;;;5254951;28;20439;-48
2022/12/27 12:43:21;;;;;;;8.97;4.00;;;6.60;99.90;;;;;;5248028;28;20439;-50
2022/12/27 12:46:15;;;;;;;8.17;3.10;;;6.80;99.90;;;;;;5258124;28;20843;-50
2022/12/27 12:49:01;;;;;;;10.07;3.57;;;7.10;99.90;;;;;;5263699;28;20988;-48
2022/12/27 12:52:03;;;;;;;6.63;3.87;;;7.30;99.90;;;;;;5278795;27;20430;-49
2022/12/27 12:55:15;;;;;;;14.80;4.70;;;7.40;99.90;;;;;;5252925;28;20483;-49
2022/12/27 12:57:58;;;;;;;12.17;3.27;;;7.50;99.90;;;;;;5250583;28;20820;-50
2022/12/27 13:00:45;;;;;;;16.00;3.90;;;7.40;99.90;;;;;;5247414;28;20444;-49
2022/12/27 13:03:51;;;;;;;21.07;4.53;;;7.40;99.90;;;;;;5255218;28;20450;-48
2022/12/27 13:06:21;;;;;;;6.33;3.00;;;7.40;99.90;;;;;;5269753;27;21002;-49
2022/12/27 13:08:58;;;;;;;8.70;2.70;;;7.30;99.90;;;;;;5261315;28;20616;-56
2022/12/27 13:11:37;;;;;;;6.60;2.83;;;7.20;99.90;;;;;;5259759;28;20280;-51
2022/12/27 13:14:14;;;;;;;3.57;1.90;;;7.10;99.90;;;;;;5262541;28;20424;-47
2022/12/27 13:16:51;;;;;;;3.23;1.83;;;7.00;99.90;;;;;;5273656;28;20458;-51
2022/12/27 13:19:22;;;;;;;6.60;2.50;;;6.80;99.90;;;;;;5267936;28;20495;-49
2022/12/27 13:22:02;;;;;;;13.37;2.27;;;6.80;99.90;;;;;;5266305;28;20435;-51
2022/12/27 13:24:51;;;;;;;14.17;3.17;;;6.60;99.90;;;;;;5266414;28;20169;-48
2022/12/27 13:27:56;;;;;;;42.70;16.20;;;6.50;99.90;;;;;;5267568;28;20812;-48
2022/12/27 13:30:47;;;;;;;15.53;5.20;;;6.50;99.90;;;;;;5264717;28;20438;-48
2022/12/27 13:33:34;;;;;;;20.77;6.20;;;6.50;99.90;;;;;;5260265;28;20468;-50
2022/12/27 13:36:23;;;;;;;10.53;2.77;;;6.40;99.90;;;;;;5262565;28;20432;-49
2022/12/27 13:39:12;;;;;;;10.40;4.20;;;6.30;99.90;;;;;;5262879;28;20452;-51
2022/12/27 13:41:55;;;;;;;8.73;4.90;;;6.30;99.90;;;;;;5263989;28;20432;-47
2022/12/27 13:44:49;;;;;;;3.90;2.70;;;6.40;99.90;;;;;;5263667;28;20453;-53
2022/12/27 13:47:31;;;;;;;5.30;2.47;;;6.40;99.90;;;;;;5268433;28;20523;-48
2022/12/27 13:50:15;;;;;;;4.23;1.53;;;6.40;99.90;;;;;;5265703;28;20427;-53
2022/12/27 13:53:02;;;;;;;5.93;1.70;;;6.50;99.90;;;;;;5261390;28;20508;-50
2022/12/27 13:56:06;;;;;;;13.30;2.90;;;6.60;99.90;;;;;;5261451;28;20432;-50
2022/12/27 13:58:54;;;;;;;13.93;3.63;;;6.70;99.90;;;;;;5258750;28;20467;-48
2022/12/27 14:01:28;;;;;;;4.90;1.77;;;6.60;99.90;;;;;;5282737;28;20809;-49
2022/12/27 14:04:42;;;;;;;4.10;1.53;;;6.60;99.90;;;;;;5273404;28;20426;-49
2022/12/27 14:07:28;;;;;;;3.00;1.60;;;6.40;99.90;;;;;;5268772;28;20834;-48
2022/12/27 14:10:25;;;;;;;2.13;1.97;;;6.30;99.90;;;;;;5270841;28;20892;-48
2022/12/27 14:13:05;;;;;;;15.53;2.60;;;6.40;99.90;;;;;;5269139;28;20456;-49
2022/12/27 14:15:42;;;;;;;4.83;1.87;;;6.50;99.90;;;;;;5275814;28;20792;-49
2022/12/27 14:18:20;;;;;;;4.20;2.30;;;6.30;99.90;;;;;;5272452;28;20830;-48
2022/12/27 14:21:25;;;;;;;5.20;2.20;;;6.40;99.90;;;;;;5270409;28;20461;-50
2022/12/27 14:24:19;;;;;;;5.03;2.20;;;6.50;99.90;;;;;;5281307;28;20434;-50
2022/12/27 14:27:08;;;;;;;10.10;3.97;;;6.40;99.90;;;;;;5268874;28;20517;-52
2022/12/27 14:30:37;;;;;;;11.90;3.73;;;6.40;99.90;;;;;;5267790;28;20439;-51
2022/12/27 14:33:26;;;;;;;31.93;13.67;;;6.20;99.90;;;;;;5217837;28;20544;-49
2022/12/27 14:36:28;;;;;;;12.10;5.53;;;6.20;99.90;;;;;;5214600;28;20454;-49
2022/12/27 14:39:04;;;;;;;6.80;2.47;;;6.20;99.90;;;;;;5257693;28;20537;-47
2022/12/27 14:42:09;;;;;;;5.47;2.50;;;6.20;99.90;;;;;;5283148;28;20461;-49
2022/12/27 14:45:17;;;;;;;13.27;5.23;;;6.10;99.90;;;;;;5272890;28;20455;-52
2022/12/27 14:48:15;;;;;;;4.53;2.63;;;6.10;99.90;;;;;;5272648;28;20448;-51
2022/12/27 14:51:14;;;;;;;5.73;2.37;;;6.00;99.90;;;;;;5279050;28;20439;-49
2022/12/27 14:53:56;;;;;;;9.10;2.23;;;6.10;99.90;;;;;;5274241;28;20467;-50
2022/12/27 14:57:12;;;;;;;6.13;2.07;;;5.80;99.90;;;;;;5275928;28;20441;-50
2022/12/27 14:59:56;;;;;;;6.37;2.20;;;5.60;99.90;;;;;;5200743;28;20557;-50
2022/12/27 15:02:59;;;;;;;14.53;2.90;;;5.50;99.90;;;;;;5264254;28;20521;-52
2022/12/27 15:06:02;;;;;;;8.13;2.63;;;5.30;99.90;;;;;;5273629;28;20836;-50
2022/12/27 15:08:36;;;;;;;4.87;1.90;;;5.20;99.90;;;;;;5270836;28;20459;-52
2022/12/27 15:11:45;;;;;;;4.27;2.37;;;5.10;99.90;;;;;;5272274;28;20459;-50
2022/12/27 15:14:28;;;;;;;5.17;2.73;;;5.00;99.90;;;;;;5270082;28;20426;-51
2022/12/27 15:17:29;;;;;;;9.10;2.13;;;4.90;99.90;;;;;;5273345;28;20492;-49
2022/12/27 15:20:12;;;;;;;2.30;2.10;;;4.80;99.90;;;;;;5287166;27;20442;-49
2022/12/27 15:23:44;;;;;;;7.00;2.57;;;4.90;99.90;;;;;;5278485;28;20427;-50
2022/12/27 15:26:20;;;;;;;6.30;2.47;;;4.90;99.90;;;;;;5216415;28;20429;-49
2022/12/27 15:29:16;;;;;;;7.90;2.43;;;4.80;99.90;;;;;;5216107;28;20536;-50
2022/12/27 15:31:59;;;;;;;7.40;3.80;;;4.90;99.90;;;;;;5271920;28;20988;-49
2022/12/27 15:34:35;;;;;;;5.90;4.20;;;4.80;99.90;;;;;;5285675;27;20439;-50
2022/12/27 15:37:45;;;;;;;9.97;3.07;;;4.80;99.90;;;;;;5282535;27;20446;-51